Time;durP1;ratioP1;P1;durP2;ratioP2;P2;SDS_P1;SDS_P2;PMS_P1;PMS_P2;Temp;Humidity;BMP_temperature;BMP_pressure;BME280_temperature;BME280_humidity;BME280_pressure;Samples;Min_cycle;Max_cycle;Signal;HPM_P1;HPM_P2
2023/03/14 00:00:53;;;;;;;33.00;4.88;;;11.00;99.90;;;;;;4937303;29;20267;-75
2023/03/14 00:03:18;;;;;;;29.00;4.90;;;11.00;99.90;;;;;;4937576;29;20184;-75
2023/03/14 00:05:44;;;;;;;33.67;5.55;;;11.00;99.90;;;;;;4937974;29;20223;-76
2023/03/14 00:08:10;;;;;;;34.60;5.75;;;11.00;99.90;;;;;;4937257;29;20191;-76
2023/03/14 00:10:37;;;;;;;35.92;5.60;;;11.00;99.90;;;;;;4937392;29;20226;-76
2023/03/14 00:13:03;;;;;;;28.10;5.15;;;11.00;99.90;;;;;;4937332;29;20279;-77
2023/03/14 00:15:28;;;;;;;30.27;5.53;;;11.00;99.90;;;;;;4937071;29;20210;-75
2023/03/14 00:17:54;;;;;;;29.90;4.38;;;11.00;99.90;;;;;;4935832;29;20752;-75
2023/03/14 00:20:20;;;;;;;30.58;5.28;;;11.00;99.90;;;;;;4937184;29;20607;-76
2023/03/14 00:22:46;;;;;;;31.15;5.10;;;11.00;99.90;;;;;;4935650;29;20187;-76
2023/03/14 00:25:12;;;;;;;26.88;4.63;;;11.00;99.90;;;;;;4935624;29;20198;-75
2023/03/14 00:27:38;;;;;;;21.55;5.00;;;11.10;99.90;;;;;;4935805;29;20180;-76
2023/03/14 00:30:07;;;;;;;27.10;5.10;;;11.10;99.90;;;;;;4937024;29;20180;-75
2023/03/14 00:32:33;;;;;;;26.23;4.55;;;11.10;99.90;;;;;;4935998;29;20207;-75
2023/03/14 00:35:01;;;;;;;24.08;4.32;;;11.10;99.90;;;;;;4936253;29;20189;-75
2023/03/14 00:37:27;;;;;;;27.02;4.63;;;11.10;99.90;;;;;;4937366;29;20263;-76
2023/03/14 00:39:53;;;;;;;23.67;4.53;;;11.20;99.90;;;;;;4936272;29;20192;-76
2023/03/14 00:42:19;;;;;;;29.52;5.00;;;11.20;99.90;;;;;;4935833;29;20588;-76
2023/03/14 00:44:44;;;;;;;25.55;4.78;;;11.20;99.90;;;;;;4935829;29;20282;-75
2023/03/14 00:47:10;;;;;;;30.08;5.30;;;11.20;99.90;;;;;;4935409;29;20278;-75
2023/03/14 00:49:36;;;;;;;28.55;4.93;;;11.20;99.90;;;;;;4936690;29;20183;-75
2023/03/14 00:52:01;;;;;;;24.98;5.18;;;11.20;99.90;;;;;;4936801;29;20203;-75
2023/03/14 00:54:27;;;;;;;25.17;4.82;;;11.20;99.90;;;;;;4934874;29;20691;-75
2023/03/14 00:56:53;;;;;;;22.23;4.53;;;11.20;99.90;;;;;;4937044;29;20179;-75
2023/03/14 00:59:19;;;;;;;25.20;4.40;;;11.20;99.90;;;;;;4935357;29;20274;-75
2023/03/14 01:01:45;;;;;;;26.50;4.65;;;11.20;99.90;;;;;;4935819;29;20191;-75
2023/03/14 01:04:12;;;;;;;27.15;4.80;;;11.20;99.90;;;;;;4920242;29;20218;-75
2023/03/14 01:06:39;;;;;;;24.27;4.20;;;11.30;99.90;;;;;;4937068;29;20286;-75
2023/03/14 01:09:04;;;;;;;21.58;4.38;;;11.20;99.90;;;;;;4935175;29;20195;-76
2023/03/14 01:11:33;;;;;;;20.88;4.43;;;11.20;99.90;;;;;;4936231;29;20214;-75
2023/03/14 01:13:59;;;;;;;24.48;4.85;;;11.20;99.90;;;;;;4935295;29;20191;-75
2023/03/14 01:16:30;;;;;;;24.83;4.43;;;11.20;99.90;;;;;;4935610;29;20183;-75
2023/03/14 01:19:00;;;;;;;23.27;3.95;;;11.20;99.90;;;;;;4936233;29;20236;-75
2023/03/14 01:21:29;;;;;;;24.48;4.25;;;11.30;99.90;;;;;;4934792;29;20198;-75
2023/03/14 01:23:56;;;;;;;21.85;4.13;;;11.20;99.90;;;;;;4935465;29;20528;-75
2023/03/14 01:26:25;;;;;;;21.88;4.00;;;11.30;99.90;;;;;;4934878;29;20549;-75
2023/03/14 01:28:53;;;;;;;28.20;4.40;;;11.20;99.90;;;;;;4935025;29;20694;-75
2023/03/14 01:31:19;;;;;;;22.58;4.35;;;11.20;99.90;;;;;;4950299;28;20253;-75
2023/03/14 01:33:45;;;;;;;30.27;4.68;;;11.30;99.90;;;;;;4934859;29;20302;-75
2023/03/14 01:36:12;;;;;;;23.35;4.00;;;11.30;99.90;;;;;;4934923;29;20304;-75
2023/03/14 01:38:39;;;;;;;17.17;3.67;;;11.30;99.90;;;;;;4934830;29;20579;-75
2023/03/14 01:41:11;;;;;;;20.23;4.50;;;11.40;99.90;;;;;;4934581;29;20233;-74
2023/03/14 01:43:37;;;;;;;26.30;3.80;;;11.40;99.90;;;;;;4934543;29;20186;-75
2023/03/14 01:46:06;;;;;;;24.50;3.90;;;11.40;99.90;;;;;;4936339;29;20184;-75
2023/03/14 01:48:40;;;;;;;19.10;3.90;;;11.40;99.90;;;;;;4935397;29;20190;-74
2023/03/14 01:51:13;;;;;;;20.90;4.00;;;11.40;99.90;;;;;;4918638;29;20270;-75
2023/03/14 01:53:42;;;;;;;26.38;4.03;;;11.40;99.90;;;;;;4938259;29;20628;-74
2023/03/14 01:56:13;;;;;;;18.63;3.60;;;11.40;99.90;;;;;;4941138;29;20266;-75
2023/03/14 01:58:42;;;;;;;17.95;3.28;;;11.40;99.90;;;;;;4941940;29;20210;-75
2023/03/14 02:01:09;;;;;;;16.52;3.05;;;11.40;99.90;;;;;;4941366;29;20175;-75
2023/03/14 02:03:44;;;;;;;14.68;3.22;;;11.40;99.90;;;;;;4925868;29;20182;-79
2023/03/14 02:06:11;;;;;;;16.73;3.05;;;11.40;99.90;;;;;;4940942;29;20175;-75
2023/03/14 02:08:40;;;;;;;17.80;3.35;;;11.40;99.90;;;;;;4941026;29;20627;-75
2023/03/14 02:11:11;;;;;;;15.07;3.42;;;11.40;99.90;;;;;;4940854;29;20226;-74
2023/03/14 02:13:49;;;;;;;15.90;3.30;;;11.30;99.90;;;;;;4941538;29;20536;-75
2023/03/14 02:16:38;;;;;;;23.88;3.20;;;11.40;99.90;;;;;;4941549;29;20230;-74
2023/03/14 02:19:43;;;;;;;17.13;3.20;;;11.40;99.90;;;;;;4942622;29;20163;-74
2023/03/14 02:22:22;;;;;;;15.43;3.15;;;11.30;99.90;;;;;;4940693;29;20175;-75
2023/03/14 02:25:09;;;;;;;19.65;3.60;;;11.30;99.90;;;;;;4940901;29;20175;-75
2023/03/14 02:27:35;;;;;;;16.33;2.83;;;11.30;99.90;;;;;;4941355;29;20178;-74
2023/03/14 02:30:19;;;;;;;18.48;3.50;;;11.20;99.90;;;;;;4940929;29;20334;-75
2023/03/14 02:32:48;;;;;;;16.58;2.40;;;11.20;99.90;;;;;;4940676;29;20287;-75
2023/03/14 02:35:19;;;;;;;16.23;3.15;;;11.20;99.90;;;;;;4941535;29;20552;-75
2023/03/14 02:37:47;;;;;;;15.80;2.40;;;11.20;99.90;;;;;;4956765;28;20194;-74
2023/03/14 02:40:13;;;;;;;15.13;2.60;;;11.20;99.90;;;;;;4940695;29;20203;-75
2023/03/14 02:42:41;;;;;;;20.52;3.28;;;11.20;99.90;;;;;;4940544;29;20690;-75
2023/03/14 02:45:07;;;;;;;20.13;2.95;;;11.10;99.90;;;;;;4940387;29;20194;-74
2023/03/14 02:47:37;;;;;;;19.27;2.75;;;11.10;99.90;;;;;;4940419;29;20183;-75
2023/03/14 02:50:16;;;;;;;18.90;3.45;;;11.10;99.90;;;;;;4940501;29;20179;-79
2023/03/14 02:52:42;;;;;;;15.95;2.85;;;11.10;99.90;;;;;;4942138;29;20266;-75
2023/03/14 02:55:09;;;;;;;13.80;2.65;;;11.10;99.90;;;;;;4940389;29;20322;-76
2023/03/14 02:57:36;;;;;;;15.80;3.10;;;11.10;99.90;;;;;;4941072;29;20183;-75
2023/03/14 03:00:06;;;;;;;15.82;2.78;;;11.10;99.90;;;;;;4925257;29;20281;-76
2023/03/14 03:02:35;;;;;;;12.93;2.72;;;11.10;99.90;;;;;;4925126;29;20184;-76
2023/03/14 03:05:01;;;;;;;15.05;3.17;;;11.10;99.90;;;;;;4922737;29;20187;-75
2023/03/14 03:07:26;;;;;;;11.70;2.72;;;11.00;99.90;;;;;;4939032;29;20266;-75
2023/03/14 03:09:55;;;;;;;12.35;2.90;;;11.00;99.90;;;;;;4937283;29;20186;-75
2023/03/14 03:12:21;;;;;;;10.68;3.15;;;11.00;99.90;;;;;;4938459;29;20219;-75
2023/03/14 03:14:46;;;;;;;13.07;2.92;;;10.90;99.90;;;;;;4937755;29;20222;-78
2023/03/14 03:17:14;;;;;;;16.83;3.45;;;10.90;99.90;;;;;;4906506;29;20187;-75
2023/03/14 03:19:40;;;;;;;14.77;3.35;;;10.90;99.90;;;;;;4937083;29;20533;-75
2023/03/14 03:22:06;;;;;;;10.00;2.72;;;10.80;99.90;;;;;;4938311;29;20271;-74
2023/03/14 03:24:31;;;;;;;16.13;3.42;;;10.80;99.90;;;;;;4937981;29;20184;-75
2023/03/14 03:26:57;;;;;;;13.02;3.38;;;10.80;99.90;;;;;;4938231;29;20176;-76
2023/03/14 03:29:23;;;;;;;11.73;3.13;;;10.80;99.90;;;;;;4938136;29;20191;-76
2023/03/14 03:31:50;;;;;;;13.35;2.75;;;10.70;99.90;;;;;;4921041;29;20222;-76
2023/03/14 03:34:17;;;;;;;15.27;3.28;;;10.70;99.90;;;;;;4921281;29;20287;-76
2023/03/14 03:36:43;;;;;;;15.82;3.65;;;10.70;99.90;;;;;;4936979;29;20255;-74
2023/03/14 03:39:10;;;;;;;14.45;3.35;;;10.70;99.90;;;;;;4936853;29;20191;-75
2023/03/14 03:41:36;;;;;;;14.55;3.58;;;10.60;99.90;;;;;;4920771;29;20197;-75
2023/03/14 03:44:02;;;;;;;12.93;3.53;;;10.60;99.90;;;;;;4936868;29;20191;-74
2023/03/14 03:46:28;;;;;;;16.13;3.58;;;10.60;99.90;;;;;;4937086;29;20599;-75
2023/03/14 03:49:00;;;;;;;15.23;3.63;;;10.60;99.90;;;;;;4920766;29;20425;-75
2023/03/14 03:51:27;;;;;;;12.18;3.47;;;10.60;99.90;;;;;;4952994;28;20223;-74
2023/03/14 03:53:53;;;;;;;16.70;3.38;;;10.60;99.90;;;;;;4937529;29;20238;-77
2023/03/14 03:56:26;;;;;;;12.85;3.55;;;10.60;99.90;;;;;;4937314;29;20183;-75
2023/03/14 03:58:52;;;;;;;18.52;3.67;;;10.60;99.90;;;;;;4920549;29;20190;-75
2023/03/14 04:01:18;;;;;;;17.60;4.32;;;10.60;99.90;;;;;;4936166;29;20183;-75
2023/03/14 04:03:47;;;;;;;20.45;4.30;;;10.50;99.90;;;;;;4936227;29;20218;-75
2023/03/14 04:06:14;;;;;;;18.98;3.95;;;10.50;99.90;;;;;;4936529;29;20215;-75
2023/03/14 04:08:43;;;;;;;18.98;3.92;;;10.50;99.90;;;;;;4936392;29;20631;-75
2023/03/14 04:11:14;;;;;;;21.52;4.43;;;10.50;99.90;;;;;;4936253;29;20757;-75
2023/03/14 04:14:03;;;;;;;21.52;3.67;;;10.50;99.90;;;;;;4936810;29;20172;-75
2023/03/14 04:16:31;;;;;;;19.10;4.88;;;10.50;99.90;;;;;;4935074;29;20187;-74
2023/03/14 04:19:03;;;;;;;24.70;4.82;;;10.50;99.90;;;;;;4936372;29;20278;-75
2023/03/14 04:21:30;;;;;;;22.30;4.63;;;10.50;99.90;;;;;;4935425;29;20242;-75
2023/03/14 04:23:57;;;;;;;22.83;4.60;;;10.50;99.90;;;;;;4936030;29;20748;-75
2023/03/14 04:26:24;;;;;;;24.67;5.13;;;10.50;99.90;;;;;;4936007;29;20259;-75
2023/03/14 04:28:49;;;;;;;21.45;4.65;;;10.50;99.90;;;;;;4935861;29;20187;-75
2023/03/14 04:31:20;;;;;;;22.33;4.88;;;10.50;99.90;;;;;;4919989;29;20222;-76
2023/03/14 04:33:47;;;;;;;21.38;4.90;;;10.50;99.90;;;;;;4936326;29;20187;-75
2023/03/14 04:36:15;;;;;;;18.50;5.05;;;10.50;99.90;;;;;;4935818;29;20658;-75
2023/03/14 04:38:42;;;;;;;20.98;5.32;;;10.50;99.90;;;;;;4936324;29;20189;-75
2023/03/14 04:41:08;;;;;;;20.98;5.43;;;10.40;99.90;;;;;;4920030;29;20231;-75
2023/03/14 04:43:35;;;;;;;22.08;5.47;;;10.40;99.90;;;;;;4936173;29;20579;-75
2023/03/14 04:46:11;;;;;;;23.50;5.95;;;10.40;99.90;;;;;;4935820;29;20243;-75
2023/03/14 04:48:38;;;;;;;17.88;5.93;;;10.40;99.90;;;;;;4919734;29;20195;-75
2023/03/14 04:51:05;;;;;;;21.55;6.47;;;10.40;99.90;;;;;;4935156;29;20627;-74
2023/03/14 04:53:34;;;;;;;23.55;6.50;;;10.40;99.90;;;;;;4919877;29;20250;-74
2023/03/14 04:56:03;;;;;;;20.40;6.03;;;10.40;99.90;;;;;;4920232;29;20179;-76
2023/03/14 04:58:35;;;;;;;21.83;6.70;;;10.40;99.90;;;;;;4951567;28;20183;-74
2023/03/14 05:01:06;;;;;;;22.77;6.93;;;10.40;99.90;;;;;;4935367;29;20266;-75
2023/03/14 05:03:31;;;;;;;17.35;6.88;;;10.40;99.90;;;;;;4936533;29;20199;-75
2023/03/14 05:06:15;;;;;;;18.58;7.00;;;10.40;99.90;;;;;;4936450;29;20183;-75
2023/03/14 05:08:59;;;;;;;17.42;7.10;;;10.30;99.90;;;;;;4936926;29;20182;-74
2023/03/14 05:11:44;;;;;;;14.30;6.75;;;10.30;99.90;;;;;;4936626;29;20214;-76
2023/03/14 05:14:23;;;;;;;21.30;7.47;;;10.30;99.90;;;;;;4935494;29;20194;-76
2023/03/14 05:16:55;;;;;;;17.45;6.97;;;10.30;99.90;;;;;;4935934;29;20414;-76
2023/03/14 05:19:41;;;;;;;15.45;6.35;;;10.30;99.90;;;;;;4944663;29;20242;-76
2023/03/14 05:22:13;;;;;;;16.35;6.80;;;10.20;99.90;;;;;;4936566;29;20184;-76
2023/03/14 05:25:06;;;;;;;14.38;6.28;;;10.20;99.90;;;;;;4936019;29;20270;-76
2023/03/14 05:27:54;;;;;;;14.48;6.50;;;10.20;99.90;;;;;;4936144;29;20174;-76
2023/03/14 05:30:40;;;;;;;19.55;6.20;;;10.20;99.90;;;;;;4935435;29;20188;-74
2023/03/14 05:33:19;;;;;;;15.15;5.72;;;10.20;99.90;;;;;;4935999;29;20656;-76
2023/03/14 05:36:07;;;;;;;18.45;5.70;;;10.20;99.90;;;;;;4922391;29;20183;-77
2023/03/14 05:38:52;;;;;;;10.88;5.05;;;10.20;99.90;;;;;;4935895;29;20190;-74
2023/03/14 05:41:37;;;;;;;16.20;5.93;;;10.20;99.90;;;;;;4935818;29;20211;-75
2023/03/14 05:44:29;;;;;;;13.55;6.18;;;10.20;99.90;;;;;;4923448;29;20241;-74
2023/03/14 05:47:12;;;;;;;16.35;5.88;;;10.10;99.90;;;;;;4921060;29;20643;-75
2023/03/14 05:50:04;;;;;;;12.82;5.72;;;10.10;99.90;;;;;;4934861;29;20183;-75
2023/03/14 05:52:42;;;;;;;14.38;5.15;;;10.10;99.90;;;;;;4936328;29;20258;-75
2023/03/14 05:55:40;;;;;;;11.80;5.30;;;10.10;99.90;;;;;;4934240;29;20231;-74
2023/03/14 05:58:14;;;;;;;11.73;4.90;;;10.10;99.90;;;;;;4934308;29;20202;-76
2023/03/14 06:01:05;;;;;;;14.18;4.85;;;10.10;99.90;;;;;;4935396;29;20203;-74
2023/03/14 06:03:42;;;;;;;12.43;5.45;;;10.10;99.90;;;;;;4935094;29;20600;-75
2023/03/14 06:06:08;;;;;;;10.20;4.53;;;10.10;99.90;;;;;;4934178;29;20191;-76
2023/03/14 06:08:34;;;;;;;10.50;4.60;;;10.10;99.90;;;;;;4935218;29;20194;-75
2023/03/14 06:11:03;;;;;;;11.52;4.72;;;10.10;99.90;;;;;;4934471;29;20219;-75
2023/03/14 06:13:30;;;;;;;6.65;3.47;;;10.10;99.90;;;;;;4934036;29;20195;-75
2023/03/14 06:15:55;;;;;;;7.60;4.00;;;10.10;99.90;;;;;;4934907;29;20218;-76
2023/03/14 06:18:21;;;;;;;8.05;3.72;;;10.10;99.90;;;;;;4934348;29;20193;-74
2023/03/14 06:20:48;;;;;;;10.20;3.50;;;10.10;99.90;;;;;;4918506;29;20188;-74
2023/03/14 06:23:22;;;;;;;11.07;5.20;;;10.10;99.90;;;;;;4934463;29;20658;-74
2023/03/14 06:25:48;;;;;;;9.32;3.40;;;10.10;99.90;;;;;;4934871;29;20596;-76
2023/03/14 06:28:14;;;;;;;7.40;3.22;;;10.10;99.90;;;;;;4933788;29;20243;-76
2023/03/14 06:30:40;;;;;;;6.32;2.80;;;10.10;99.90;;;;;;4935445;29;20218;-76
2023/03/14 06:33:08;;;;;;;4.15;1.35;;;10.10;99.90;;;;;;4919150;29;20190;-76
2023/03/14 06:35:34;;;;;;;6.80;2.10;;;9.90;99.90;;;;;;4935598;29;20274;-77
2023/03/14 06:38:00;;;;;;;8.93;1.45;;;9.80;99.90;;;;;;4934295;29;20211;-74
2023/03/14 06:40:26;;;;;;;10.10;1.98;;;9.60;99.90;;;;;;4936577;29;20642;-75
2023/03/14 06:43:12;;;;;;;17.42;1.83;;;9.50;99.90;;;;;;4925203;29;20649;-75
2023/03/14 06:45:42;;;;;;;15.15;1.90;;;9.40;99.90;;;;;;4922509;29;20184;-74
2023/03/14 06:48:08;;;;;;;24.25;2.50;;;9.20;99.90;;;;;;4921969;29;20187;-75
2023/03/14 06:50:49;;;;;;;14.18;1.70;;;9.10;99.90;;;;;;4937645;29;20175;-74
2023/03/14 06:53:14;;;;;;;25.83;2.65;;;8.90;99.90;;;;;;4922087;29;20187;-74
2023/03/14 06:55:43;;;;;;;16.83;2.53;;;8.70;99.90;;;;;;4937646;29;20198;-75
2023/03/14 06:58:09;;;;;;;13.48;2.30;;;8.50;99.90;;;;;;4938291;29;20294;-74
2023/03/14 07:00:41;;;;;;;17.60;2.28;;;8.20;99.90;;;;;;4938460;29;20264;-76
2023/03/14 07:03:08;;;;;;;13.82;2.08;;;7.90;99.90;;;;;;4937434;29;20211;-75
2023/03/14 07:05:40;;;;;;;22.27;2.25;;;7.80;99.90;;;;;;4938017;29;20179;-74
2023/03/14 07:08:07;;;;;;;18.35;2.00;;;7.60;99.90;;;;;;4921825;29;20187;-76
2023/03/14 07:10:34;;;;;;;18.42;1.83;;;7.50;99.90;;;;;;4937881;29;20182;-74
2023/03/14 07:13:00;;;;;;;12.82;1.77;;;7.30;99.90;;;;;;4938286;29;20216;-75
2023/03/14 07:15:29;;;;;;;11.00;1.58;;;7.20;99.90;;;;;;4937951;29;20219;-75
2023/03/14 07:18:00;;;;;;;19.13;1.50;;;7.10;99.90;;;;;;4922783;29;20278;-77
2023/03/14 07:20:26;;;;;;;13.43;1.70;;;6.90;99.90;;;;;;4921572;29;20187;-74
2023/03/14 07:22:52;;;;;;;7.85;1.33;;;6.80;99.90;;;;;;4937033;29;20282;-74
2023/03/14 07:25:27;;;;;;;9.00;1.25;;;6.70;99.90;;;;;;4937708;29;20217;-74
2023/03/14 07:27:53;;;;;;;11.70;1.42;;;6.60;99.90;;;;;;4936975;29;20187;-73
2023/03/14 07:30:19;;;;;;;11.65;1.35;;;6.50;99.90;;;;;;4936872;29;20506;-75
2023/03/14 07:32:46;;;;;;;6.35;1.27;;;6.40;99.90;;;;;;4936954;29;20317;-74
2023/03/14 07:35:13;;;;;;;8.32;1.17;;;6.30;99.90;;;;;;4937439;29;20190;-77
2023/03/14 07:37:40;;;;;;;7.05;1.00;;;6.20;99.90;;;;;;4936589;29;20199;-74
2023/03/14 07:40:07;;;;;;;4.10;0.80;;;6.20;99.90;;;;;;4936619;29;20331;-75
2023/03/14 07:42:34;;;;;;;5.85;0.90;;;6.20;99.90;;;;;;4921192;29;20199;-74
2023/03/14 07:45:13;;;;;;;8.73;1.27;;;6.10;99.90;;;;;;4936655;29;20171;-74
2023/03/14 07:47:39;;;;;;;5.38;0.95;;;6.10;99.90;;;;;;4938162;29;20542;-73
2023/03/14 07:50:05;;;;;;;1.85;0.73;;;6.10;99.90;;;;;;4920861;29;20191;-75
2023/03/14 07:52:31;;;;;;;2.50;0.80;;;6.10;99.90;;;;;;4936258;29;20311;-75
2023/03/14 07:54:57;;;;;;;6.00;1.52;;;6.00;99.90;;;;;;4937808;29;20255;-80
2023/03/14 07:57:23;;;;;;;6.32;1.20;;;5.90;99.90;;;;;;4937512;29;20215;-75
2023/03/14 07:59:49;;;;;;;5.25;1.10;;;5.90;99.90;;;;;;4937159;29;20238;-80
2023/03/14 08:02:15;;;;;;;9.50;1.00;;;5.90;99.90;;;;;;4937454;29;20498;-75
2023/03/14 08:04:41;;;;;;;5.13;0.93;;;5.90;99.90;;;;;;4937106;29;20183;-77
2023/03/14 08:07:07;;;;;;;2.38;0.73;;;5.90;99.90;;;;;;4937545;29;20612;-75
2023/03/14 08:09:33;;;;;;;9.88;1.10;;;5.90;99.90;;;;;;4937068;29;20550;-76
2023/03/14 08:11:59;;;;;;;7.55;1.10;;;5.90;99.90;;;;;;4935782;29;20258;-75
2023/03/14 08:14:25;;;;;;;6.22;1.10;;;5.90;99.90;;;;;;4937389;29;20183;-75
2023/03/14 08:16:51;;;;;;;9.15;1.20;;;5.90;99.90;;;;;;4937341;29;20183;-74
2023/03/14 08:19:17;;;;;;;6.20;1.25;;;5.90;99.90;;;;;;4935861;29;20193;-77
2023/03/14 08:21:43;;;;;;;6.35;1.17;;;6.00;99.90;;;;;;4937533;29;20194;-77
2023/03/14 08:24:09;;;;;;;9.00;1.40;;;6.00;99.90;;;;;;4937850;29;20187;-75
2023/03/14 08:26:35;;;;;;;6.78;1.40;;;6.10;99.90;;;;;;4936827;29;20180;-75
2023/03/14 08:29:01;;;;;;;7.00;1.42;;;6.10;99.90;;;;;;4920349;29;20176;-75
2023/03/14 08:31:27;;;;;;;11.98;1.73;;;6.20;99.90;;;;;;4936710;29;20226;-77
2023/03/14 08:33:53;;;;;;;7.53;1.35;;;6.20;99.90;;;;;;4937474;29;20270;-77
2023/03/14 08:36:19;;;;;;;7.90;1.30;;;6.30;99.90;;;;;;4936791;29;20179;-75
2023/03/14 08:38:45;;;;;;;9.50;1.70;;;6.30;99.90;;;;;;4935761;29;20187;-77
2023/03/14 08:41:11;;;;;;;8.40;2.17;;;6.40;99.90;;;;;;4936247;29;20183;-75
2023/03/14 08:43:37;;;;;;;17.00;7.97;;;6.50;99.90;;;;;;4935578;29;20202;-74
2023/03/14 08:46:03;;;;;;;19.92;8.25;;;6.50;99.90;;;;;;4936802;29;20180;-75
2023/03/14 08:48:30;;;;;;;11.48;4.15;;;6.60;99.90;;;;;;4937126;29;20190;-75
2023/03/14 08:50:57;;;;;;;17.23;6.90;;;6.60;99.90;;;;;;4936822;29;20703;-74
2023/03/14 08:53:23;;;;;;;17.88;7.03;;;6.70;99.90;;;;;;4935057;29;20258;-75
2023/03/14 08:55:55;;;;;;;12.02;6.13;;;6.70;99.90;;;;;;4935810;29;20210;-75
2023/03/14 08:58:23;;;;;;;19.55;3.10;;;6.70;99.90;;;;;;4936193;29;20176;-74
2023/03/14 09:00:49;;;;;;;15.52;4.82;;;6.70;99.90;;;;;;4935306;29;20552;-75
2023/03/14 09:03:15;;;;;;;16.38;3.67;;;6.80;99.90;;;;;;4934434;29;20184;-75
2023/03/14 09:05:40;;;;;;;13.02;2.33;;;6.90;99.90;;;;;;4937033;29;20207;-75
2023/03/14 09:08:06;;;;;;;21.55;3.35;;;7.00;99.90;;;;;;4919679;29;20198;-76
2023/03/14 09:10:32;;;;;;;19.77;3.28;;;7.20;99.90;;;;;;4936229;29;20247;-75
2023/03/14 09:12:58;;;;;;;21.65;3.20;;;7.40;99.90;;;;;;4936495;29;20694;-75
2023/03/14 09:15:24;;;;;;;25.52;3.58;;;7.70;99.90;;;;;;4935750;29;20261;-75
2023/03/14 09:17:50;;;;;;;21.58;3.63;;;7.90;99.90;;;;;;4935556;29;20266;-75
2023/03/14 09:20:16;;;;;;;21.65;3.50;;;8.10;99.90;;;;;;4936238;29;20176;-74
2023/03/14 09:22:42;;;;;;;21.38;3.63;;;8.30;99.90;;;;;;4935964;29;20190;-75
2023/03/14 09:25:08;;;;;;;25.15;4.05;;;8.40;99.90;;;;;;4936286;29;20282;-76
2023/03/14 09:27:34;;;;;;;29.35;4.32;;;8.30;99.90;;;;;;4935961;29;20274;-74
2023/03/14 09:29:59;;;;;;;27.27;5.00;;;8.30;99.90;;;;;;4935981;29;20679;-78
2023/03/14 09:32:26;;;;;;;24.92;3.67;;;8.20;99.90;;;;;;4934884;29;20235;-73
2023/03/14 09:34:52;;;;;;;23.17;3.90;;;8.10;99.90;;;;;;4936584;29;20192;-79
2023/03/14 09:37:19;;;;;;;31.30;5.53;;;8.10;99.90;;;;;;4936261;29;20182;-75
2023/03/14 09:39:45;;;;;;;18.42;3.30;;;7.90;99.90;;;;;;4936295;29;20691;-75
2023/03/14 09:42:17;;;;;;;30.77;9.45;;;7.90;99.90;;;;;;4936090;29;20183;-75
2023/03/14 09:44:56;;;;;;;21.80;7.20;;;7.90;99.90;;;;;;4919078;29;20218;-75
2023/03/14 09:47:22;;;;;;;21.35;3.60;;;7.80;99.90;;;;;;4936303;29;20171;-75
2023/03/14 09:49:48;;;;;;;20.40;3.50;;;7.80;99.90;;;;;;4936216;29;20230;-75
2023/03/14 09:52:15;;;;;;;23.38;3.65;;;7.80;99.90;;;;;;4935304;29;20215;-75
2023/03/14 09:54:47;;;;;;;11.80;2.50;;;7.80;99.90;;;;;;4935227;29;20249;-75
2023/03/14 09:57:19;;;;;;;20.77;3.70;;;7.80;99.90;;;;;;4935941;29;20164;-75
2023/03/14 09:59:48;;;;;;;21.30;3.75;;;7.80;99.90;;;;;;4935545;29;20211;-75
2023/03/14 10:02:25;;;;;;;18.67;3.97;;;7.80;99.90;;;;;;4935827;29;20191;-74
2023/03/14 10:04:53;;;;;;;23.00;3.83;;;7.80;99.90;;;;;;4935407;29;20187;-78
2023/03/14 10:07:29;;;;;;;20.20;3.90;;;7.80;99.90;;;;;;4934642;29;20206;-76
2023/03/14 10:09:56;;;;;;;31.77;4.93;;;7.70;99.90;;;;;;4935584;29;20608;-74
2023/03/14 10:12:35;;;;;;;25.90;3.42;;;7.70;99.90;;;;;;4933923;29;20289;-75
2023/03/14 10:15:09;;;;;;;25.52;3.67;;;7.70;99.90;;;;;;4938275;29;20259;-75
2023/03/14 10:17:41;;;;;;;34.35;3.22;;;7.70;99.90;;;;;;4939660;29;20166;-75
2023/03/14 10:20:17;;;;;;;25.92;3.20;;;7.70;99.90;;;;;;4938991;29;20185;-74
2023/03/14 10:22:43;;;;;;;22.33;3.08;;;7.70;99.90;;;;;;4939095;29;20604;-76
2023/03/14 10:25:27;;;;;;;29.30;8.65;;;7.70;99.90;;;;;;4938942;29;20172;-75
2023/03/14 10:27:53;;;;;;;26.52;2.97;;;7.80;99.90;;;;;;4939377;29;20176;-74
2023/03/14 10:30:45;;;;;;;20.50;3.78;;;7.90;99.90;;;;;;4939097;29;20180;-74
2023/03/14 10:33:19;;;;;;;23.15;2.92;;;8.00;99.90;;;;;;4937830;29;20180;-75
2023/03/14 10:35:52;;;;;;;16.42;2.80;;;7.90;99.90;;;;;;4938450;29;20179;-75
2023/03/14 10:38:18;;;;;;;15.52;3.22;;;8.00;99.90;;;;;;4939175;29;20175;-76
2023/03/14 10:40:51;;;;;;;17.23;6.15;;;8.10;99.90;;;;;;4939208;29;20229;-77
2023/03/14 10:43:21;;;;;;;15.18;2.58;;;8.20;99.90;;;;;;4939263;29;20600;-76
2023/03/14 10:45:57;;;;;;;9.27;2.40;;;8.40;99.90;;;;;;4938622;29;20190;-75
2023/03/14 10:48:38;;;;;;;16.25;3.10;;;8.50;99.90;;;;;;4939487;29;20250;-75
2023/03/14 10:51:27;;;;;;;17.15;2.50;;;8.90;99.90;;;;;;4938513;29;20214;-74
2023/03/14 10:53:57;;;;;;;16.15;3.22;;;9.30;99.90;;;;;;4938541;29;20710;-76
2023/03/14 10:56:24;;;;;;;13.05;2.58;;;9.40;99.90;;;;;;4938925;29;20172;-76
2023/03/14 10:58:55;;;;;;;11.45;2.08;;;9.30;99.90;;;;;;4938386;29;20183;-77
2023/03/14 11:01:32;;;;;;;16.55;3.03;;;9.30;99.90;;;;;;4937174;29;20176;-75
2023/03/14 11:04:14;;;;;;;18.52;2.65;;;9.30;99.90;;;;;;4938609;29;20183;-75
2023/03/14 11:06:39;;;;;;;10.13;2.60;;;9.30;99.90;;;;;;4938585;29;20164;-76
2023/03/14 11:09:54;;;;;;;9.77;2.13;;;9.20;99.90;;;;;;4938844;29;20507;-77
2023/03/14 11:12:46;;;;;;;10.75;2.40;;;9.20;99.90;;;;;;4902923;29;20728;-76
2023/03/14 11:15:30;;;;;;;13.30;4.88;;;9.50;99.90;;;;;;4938137;29;20286;-75
2023/03/14 11:17:58;;;;;;;8.10;1.98;;;9.80;99.90;;;;;;4936913;29;20258;-74
2023/03/14 11:20:36;;;;;;;18.17;2.30;;;10.10;99.90;;;;;;4936977;29;20245;-75
2023/03/14 11:23:07;;;;;;;10.35;1.77;;;10.00;99.90;;;;;;4939078;29;20176;-75
2023/03/14 11:25:46;;;;;;;6.90;1.70;;;9.90;99.70;;;;;;4937534;29;20258;-74
2023/03/14 11:28:36;;;;;;;9.82;1.90;;;9.80;99.90;;;;;;4938394;29;20164;-75
2023/03/14 11:31:14;;;;;;;7.30;1.88;;;9.70;99.20;;;;;;4936859;29;20183;-76
2023/03/14 11:33:47;;;;;;;7.20;1.83;;;9.90;99.60;;;;;;4938526;29;20201;-75
2023/03/14 11:36:37;;;;;;;6.45;1.60;;;10.00;97.90;;;;;;4937380;29;20250;-78
2023/03/14 11:39:12;;;;;;;6.57;1.67;;;10.00;97.40;;;;;;4938557;29;20178;-75
2023/03/14 11:41:44;;;;;;;7.63;1.40;;;10.00;95.70;;;;;;4938465;29;20201;-79
2023/03/14 11:44:19;;;;;;;5.60;1.40;;;10.10;94.60;;;;;;4937677;29;20207;-75
2023/03/14 11:47:10;;;;;;;6.47;1.48;;;10.10;94.60;;;;;;4938824;28;20175;-75
2023/03/14 11:49:47;;;;;;;15.27;1.80;;;10.20;93.80;;;;;;4938406;29;20176;-76
2023/03/14 11:52:41;;;;;;;9.10;1.50;;;10.20;93.30;;;;;;4937508;29;20199;-77
2023/03/14 11:55:20;;;;;;;13.82;1.70;;;10.20;93.30;;;;;;4938203;29;20231;-78
2023/03/14 11:57:50;;;;;;;8.55;1.35;;;10.10;93.50;;;;;;4936751;29;20191;-76
2023/03/14 12:00:17;;;;;;;8.57;1.55;;;10.10;93.00;;;;;;4937391;29;20187;-76
2023/03/14 12:03:10;;;;;;;11.00;1.65;;;10.20;92.90;;;;;;4920617;29;20171;-76
2023/03/14 12:05:42;;;;;;;4.13;1.23;;;10.10;91.20;;;;;;4937605;29;20205;-76
2023/03/14 12:08:08;;;;;;;6.45;1.42;;;10.00;91.60;;;;;;4937676;29;20263;-76
2023/03/14 12:10:51;;;;;;;11.93;2.13;;;9.90;92.00;;;;;;4937277;29;20262;-76
2023/03/14 12:13:17;;;;;;;13.52;1.83;;;9.70;92.10;;;;;;4936450;29;20204;-75
2023/03/14 12:15:58;;;;;;;14.00;1.67;;;9.70;93.20;;;;;;4936210;29;20198;-76
2023/03/14 12:18:34;;;;;;;7.13;1.80;;;9.70;93.40;;;;;;4935803;29;20179;-75
2023/03/14 12:21:03;;;;;;;8.65;1.60;;;9.50;93.70;;;;;;4936392;29;20179;-74
2023/03/14 12:23:43;;;;;;;12.02;2.00;;;9.50;94.20;;;;;;4936968;29;20198;-76
2023/03/14 12:26:12;;;;;;;10.82;1.88;;;9.40;94.00;;;;;;4937474;29;20214;-74
2023/03/14 12:28:41;;;;;;;12.70;1.92;;;9.30;93.80;;;;;;4937350;29;20180;-74
2023/03/14 12:31:32;;;;;;;8.80;2.20;;;9.20;94.40;;;;;;4936786;29;20310;-76
2023/03/14 12:34:09;;;;;;;9.98;1.67;;;9.10;94.70;;;;;;4937278;29;20183;-74
2023/03/14 12:36:50;;;;;;;14.43;2.08;;;9.00;94.60;;;;;;4937138;29;20175;-75
2023/03/14 12:39:38;;;;;;;13.90;2.60;;;9.00;95.10;;;;;;4935849;29;20239;-76
2023/03/14 12:42:10;;;;;;;20.23;3.20;;;8.90;95.40;;;;;;4937064;29;20179;-75
2023/03/14 12:45:03;;;;;;;21.30;2.50;;;8.80;95.90;;;;;;4937064;29;20179;-75
2023/03/14 12:47:32;;;;;;;14.75;2.50;;;8.80;95.90;;;;;;4933919;29;20210;-75
2023/03/14 12:50:12;;;;;;;16.20;2.20;;;8.70;96.20;;;;;;4936596;29;20184;-77
2023/03/14 12:52:59;;;;;;;8.82;2.33;;;8.60;95.30;;;;;;4935439;29;20264;-76
2023/03/14 12:55:53;;;;;;;11.63;2.25;;;8.60;95.20;;;;;;4936499;29;20567;-76
2023/03/14 12:58:58;;;;;;;13.65;2.13;;;8.60;95.00;;;;;;4936480;29;20195;-75
2023/03/14 13:01:24;;;;;;;14.57;1.98;;;8.50;95.50;;;;;;4936318;29;20175;-74
2023/03/14 13:04:09;;;;;;;11.13;2.17;;;8.50;95.80;;;;;;4936371;29;20180;-75